sensor_id;sensor_type;location;lat;lon;timestamp;P1;durP1;ratioP1;P2;durP2;ratioP2
39792;SDS011;26080;42.264;24.536;2023-09-07T00:00:19;7.30;;;3.55;;
39792;SDS011;26080;42.264;24.536;2023-09-07T00:02:45;6.43;;;2.95;;
39792;SDS011;26080;42.264;24.536;2023-09-07T00:05:11;4.63;;;3.25;;
39792;SDS011;26080;42.264;24.536;2023-09-07T00:07:38;4.55;;;2.78;;
39792;SDS011;26080;42.264;24.536;2023-09-07T00:10:04;7.38;;;3.25;;
39792;SDS011;26080;42.264;24.536;2023-09-07T00:12:30;6.15;;;3.35;;
39792;SDS011;26080;42.264;24.536;2023-09-07T00:14:55;4.78;;;3.20;;
39792;SDS011;26080;42.264;24.536;2023-09-07T00:17:22;5.50;;;3.28;;
39792;SDS011;26080;42.264;24.536;2023-09-07T00:19:47;8.25;;;3.42;;
39792;SDS011;26080;42.264;24.536;2023-09-07T00:22:16;5.65;;;3.22;;
39792;SDS011;26080;42.264;24.536;2023-09-07T00:24:42;5.70;;;3.95;;
39792;SDS011;26080;42.264;24.536;2023-09-07T00:27:07;5.10;;;3.33;;
39792;SDS011;26080;42.264;24.536;2023-09-07T00:29:36;8.50;;;3.40;;
39792;SDS011;26080;42.264;24.536;2023-09-07T00:32:01;4.85;;;3.17;;
39792;SDS011;26080;42.264;24.536;2023-09-07T00:34:26;6.10;;;3.47;;
39792;SDS011;26080;42.264;24.536;2023-09-07T00:36:52;6.70;;;3.50;;
39792;SDS011;26080;42.264;24.536;2023-09-07T00:39:17;5.30;;;3.75;;
39792;SDS011;26080;42.264;24.536;2023-09-07T00:41:43;7.72;;;4.03;;
39792;SDS011;26080;42.264;24.536;2023-09-07T00:44:08;9.38;;;3.33;;
39792;SDS011;26080;42.264;24.536;2023-09-07T00:46:33;7.38;;;4.35;;
39792;SDS011;26080;42.264;24.536;2023-09-07T00:48:59;9.13;;;4.00;;
39792;SDS011;26080;42.264;24.536;2023-09-07T00:51:25;8.90;;;3.55;;
39792;SDS011;26080;42.264;24.536;2023-09-07T00:53:51;8.07;;;3.85;;
39792;SDS011;26080;42.264;24.536;2023-09-07T00:56:18;4.78;;;3.45;;
39792;SDS011;26080;42.264;24.536;2023-09-07T00:58:44;7.65;;;4.68;;
39792;SDS011;26080;42.264;24.536;2023-09-07T01:01:10;7.28;;;3.67;;
39792;SDS011;26080;42.264;24.536;2023-09-07T01:03:35;5.72;;;3.88;;
39792;SDS011;26080;42.264;24.536;2023-09-07T01:06:04;9.77;;;4.13;;
39792;SDS011;26080;42.264;24.536;2023-09-07T01:08:55;7.25;;;3.88;;
39792;SDS011;26080;42.264;24.536;2023-09-07T01:11:24;8.02;;;3.92;;
39792;SDS011;26080;42.264;24.536;2023-09-07T01:13:49;8.85;;;3.70;;
39792;SDS011;26080;42.264;24.536;2023-09-07T01:16:17;7.47;;;3.95;;
39792;SDS011;26080;42.264;24.536;2023-09-07T01:18:45;7.80;;;4.50;;
39792;SDS011;26080;42.264;24.536;2023-09-07T01:21:10;5.90;;;4.05;;
39792;SDS011;26080;42.264;24.536;2023-09-07T01:23:40;7.32;;;4.13;;
39792;SDS011;26080;42.264;24.536;2023-09-07T01:26:07;7.00;;;4.13;;
39792;SDS011;26080;42.264;24.536;2023-09-07T01:28:34;6.88;;;3.10;;
39792;SDS011;26080;42.264;24.536;2023-09-07T01:31:00;5.82;;;4.03;;
39792;SDS011;26080;42.264;24.536;2023-09-07T01:33:26;7.65;;;4.13;;
39792;SDS011;26080;42.264;24.536;2023-09-07T01:35:52;5.10;;;3.22;;
39792;SDS011;26080;42.264;24.536;2023-09-07T01:38:18;8.00;;;4.03;;
39792;SDS011;26080;42.264;24.536;2023-09-07T01:40:43;10.30;;;4.10;;
39792;SDS011;26080;42.264;24.536;2023-09-07T01:43:09;6.95;;;3.70;;
39792;SDS011;26080;42.264;24.536;2023-09-07T01:45:34;5.82;;;3.67;;
39792;SDS011;26080;42.264;24.536;2023-09-07T01:47:59;6.78;;;3.75;;
39792;SDS011;26080;42.264;24.536;2023-09-07T01:50:26;7.03;;;3.83;;
39792;SDS011;26080;42.264;24.536;2023-09-07T01:52:51;8.00;;;3.72;;
39792;SDS011;26080;42.264;24.536;2023-09-07T01:55:17;5.47;;;3.17;;
39792;SDS011;26080;42.264;24.536;2023-09-07T01:57:43;6.70;;;3.97;;
39792;SDS011;26080;42.264;24.536;2023-09-07T02:00:09;9.32;;;3.65;;
39792;SDS011;26080;42.264;24.536;2023-09-07T02:02:35;5.40;;;3.58;;
39792;SDS011;26080;42.264;24.536;2023-09-07T02:05:00;4.95;;;2.97;;
39792;SDS011;26080;42.264;24.536;2023-09-07T02:07:26;6.78;;;3.83;;
39792;SDS011;26080;42.264;24.536;2023-09-07T02:09:51;6.57;;;3.40;;
39792;SDS011;26080;42.264;24.536;2023-09-07T02:12:17;7.03;;;3.80;;
39792;SDS011;26080;42.264;24.536;2023-09-07T02:14:42;6.38;;;3.25;;
39792;SDS011;26080;42.264;24.536;2023-09-07T02:17:08;5.57;;;2.88;;
39792;SDS011;26080;42.264;24.536;2023-09-07T02:19:33;7.05;;;3.63;;
39792;SDS011;26080;42.264;24.536;2023-09-07T02:21:59;5.38;;;3.40;;
39792;SDS011;26080;42.264;24.536;2023-09-07T02:24:24;8.18;;;4.30;;
39792;SDS011;26080;42.264;24.536;2023-09-07T02:26:49;4.32;;;3.65;;
39792;SDS011;26080;42.264;24.536;2023-09-07T02:29:15;6.97;;;3.47;;
39792;SDS011;26080;42.264;24.536;2023-09-07T02:31:41;6.82;;;3.70;;
39792;SDS011;26080;42.264;24.536;2023-09-07T02:34:06;6.93;;;4.50;;
39792;SDS011;26080;42.264;24.536;2023-09-07T02:36:32;7.38;;;4.55;;
39792;SDS011;26080;42.264;24.536;2023-09-07T02:39:00;6.18;;;3.45;;
39792;SDS011;26080;42.264;24.536;2023-09-07T02:41:26;6.28;;;3.88;;
39792;SDS011;26080;42.264;24.536;2023-09-07T02:43:51;7.13;;;4.15;;
39792;SDS011;26080;42.264;24.536;2023-09-07T02:46:17;7.13;;;3.92;;
39792;SDS011;26080;42.264;24.536;2023-09-07T02:48:42;6.38;;;4.18;;
39792;SDS011;26080;42.264;24.536;2023-09-07T02:51:08;12.07;;;4.63;;
39792;SDS011;26080;42.264;24.536;2023-09-07T02:53:33;10.25;;;4.35;;
39792;SDS011;26080;42.264;24.536;2023-09-07T02:55:59;5.88;;;4.00;;
39792;SDS011;26080;42.264;24.536;2023-09-07T02:58:27;7.47;;;4.25;;
39792;SDS011;26080;42.264;24.536;2023-09-07T03:00:52;7.60;;;3.85;;
39792;SDS011;26080;42.264;24.536;2023-09-07T03:03:18;7.63;;;3.72;;
39792;SDS011;26080;42.264;24.536;2023-09-07T03:05:43;6.28;;;3.88;;
39792;SDS011;26080;42.264;24.536;2023-09-07T03:08:10;7.25;;;3.88;;
39792;SDS011;26080;42.264;24.536;2023-09-07T03:10:36;5.28;;;3.92;;
39792;SDS011;26080;42.264;24.536;2023-09-07T03:13:04;8.45;;;4.18;;
39792;SDS011;26080;42.264;24.536;2023-09-07T03:15:30;9.80;;;4.60;;
39792;SDS011;26080;42.264;24.536;2023-09-07T03:17:56;6.72;;;3.63;;
39792;SDS011;26080;42.264;24.536;2023-09-07T03:20:21;12.00;;;4.93;;
39792;SDS011;26080;42.264;24.536;2023-09-07T03:22:47;9.98;;;6.00;;
39792;SDS011;26080;42.264;24.536;2023-09-07T03:25:12;7.03;;;4.38;;
39792;SDS011;26080;42.264;24.536;2023-09-07T03:27:38;7.68;;;4.15;;
39792;SDS011;26080;42.264;24.536;2023-09-07T03:30:04;6.53;;;4.35;;
39792;SDS011;26080;42.264;24.536;2023-09-07T03:32:31;10.82;;;4.75;;
39792;SDS011;26080;42.264;24.536;2023-09-07T03:35:02;5.75;;;3.22;;
39792;SDS011;26080;42.264;24.536;2023-09-07T03:37:32;15.43;;;3.70;;
39792;SDS011;26080;42.264;24.536;2023-09-07T03:39:57;7.57;;;5.18;;
39792;SDS011;26080;42.264;24.536;2023-09-07T03:42:23;5.53;;;3.60;;
39792;SDS011;26080;42.264;24.536;2023-09-07T03:44:48;9.23;;;3.92;;
39792;SDS011;26080;42.264;24.536;2023-09-07T03:47:14;6.35;;;4.13;;
39792;SDS011;26080;42.264;24.536;2023-09-07T03:49:43;6.90;;;4.28;;
39792;SDS011;26080;42.264;24.536;2023-09-07T03:52:09;13.85;;;4.20;;
39792;SDS011;26080;42.264;24.536;2023-09-07T03:54:34;11.00;;;4.25;;
39792;SDS011;26080;42.264;24.536;2023-09-07T03:57:00;6.82;;;4.18;;
39792;SDS011;26080;42.264;24.536;2023-09-07T03:59:27;5.85;;;3.67;;
39792;SDS011;26080;42.264;24.536;2023-09-07T04:01:53;6.18;;;4.03;;
39792;SDS011;26080;42.264;24.536;2023-09-07T04:04:19;6.18;;;3.65;;
39792;SDS011;26080;42.264;24.536;2023-09-07T04:06:46;5.95;;;3.65;;
39792;SDS011;26080;42.264;24.536;2023-09-07T04:09:13;21.27;;;5.15;;
39792;SDS011;26080;42.264;24.536;2023-09-07T04:11:39;7.72;;;3.95;;
39792;SDS011;26080;42.264;24.536;2023-09-07T04:14:04;19.23;;;5.00;;
39792;SDS011;26080;42.264;24.536;2023-09-07T04:16:30;8.98;;;4.82;;
39792;SDS011;26080;42.264;24.536;2023-09-07T04:18:56;4.53;;;3.25;;
39792;SDS011;26080;42.264;24.536;2023-09-07T04:21:21;8.68;;;4.15;;
39792;SDS011;26080;42.264;24.536;2023-09-07T04:23:47;6.50;;;3.63;;
39792;SDS011;26080;42.264;24.536;2023-09-07T04:26:12;5.05;;;3.70;;
39792;SDS011;26080;42.264;24.536;2023-09-07T04:28:38;5.07;;;3.30;;
39792;SDS011;26080;42.264;24.536;2023-09-07T04:31:04;5.15;;;3.00;;
39792;SDS011;26080;42.264;24.536;2023-09-07T04:33:31;5.40;;;2.78;;
39792;SDS011;26080;42.264;24.536;2023-09-07T04:35:57;6.55;;;4.18;;
39792;SDS011;26080;42.264;24.536;2023-09-07T04:38:43;6.95;;;3.72;;
39792;SDS011;26080;42.264;24.536;2023-09-07T04:41:09;8.55;;;3.75;;
39792;SDS011;26080;42.264;24.536;2023-09-07T04:43:35;7.93;;;4.13;;
39792;SDS011;26080;42.264;24.536;2023-09-07T04:46:02;7.60;;;4.22;;
39792;SDS011;26080;42.264;24.536;2023-09-07T04:48:28;6.55;;;3.95;;
39792;SDS011;26080;42.264;24.536;2023-09-07T04:51:07;7.05;;;4.28;;
39792;SDS011;26080;42.264;24.536;2023-09-07T04:53:34;8.48;;;2.90;;
39792;SDS011;26080;42.264;24.536;2023-09-07T04:56:01;7.65;;;5.00;;
39792;SDS011;26080;42.264;24.536;2023-09-07T04:58:27;5.72;;;3.47;;
39792;SDS011;26080;42.264;24.536;2023-09-07T05:00:53;6.28;;;3.72;;
39792;SDS011;26080;42.264;24.536;2023-09-07T05:03:18;6.18;;;3.20;;
39792;SDS011;26080;42.264;24.536;2023-09-07T05:05:44;9.48;;;4.43;;
39792;SDS011;26080;42.264;24.536;2023-09-07T05:08:10;7.13;;;3.95;;
39792;SDS011;26080;42.264;24.536;2023-09-07T05:10:36;7.35;;;3.72;;
39792;SDS011;26080;42.264;24.536;2023-09-07T05:13:02;8.30;;;3.60;;
39792;SDS011;26080;42.264;24.536;2023-09-07T05:15:27;9.95;;;4.22;;
39792;SDS011;26080;42.264;24.536;2023-09-07T05:17:53;8.52;;;4.78;;
39792;SDS011;26080;42.264;24.536;2023-09-07T05:20:19;5.97;;;3.50;;
39792;SDS011;26080;42.264;24.536;2023-09-07T05:22:45;7.03;;;4.38;;
39792;SDS011;26080;42.264;24.536;2023-09-07T05:25:11;8.95;;;4.32;;
39792;SDS011;26080;42.264;24.536;2023-09-07T05:27:37;7.93;;;4.40;;
39792;SDS011;26080;42.264;24.536;2023-09-07T05:30:03;6.45;;;3.92;;
39792;SDS011;26080;42.264;24.536;2023-09-07T05:32:29;6.30;;;3.20;;
39792;SDS011;26080;42.264;24.536;2023-09-07T05:34:55;7.85;;;3.88;;
39792;SDS011;26080;42.264;24.536;2023-09-07T05:37:20;5.80;;;3.53;;
39792;SDS011;26080;42.264;24.536;2023-09-07T05:39:46;6.05;;;3.25;;
39792;SDS011;26080;42.264;24.536;2023-09-07T05:42:12;5.53;;;3.97;;
39792;SDS011;26080;42.264;24.536;2023-09-07T05:44:37;7.95;;;3.50;;
39792;SDS011;26080;42.264;24.536;2023-09-07T05:47:04;7.22;;;4.32;;
39792;SDS011;26080;42.264;24.536;2023-09-07T05:49:30;12.73;;;6.85;;
39792;SDS011;26080;42.264;24.536;2023-09-07T05:51:55;7.15;;;4.47;;
39792;SDS011;26080;42.264;24.536;2023-09-07T05:54:21;6.05;;;3.60;;
39792;SDS011;26080;42.264;24.536;2023-09-07T05:56:47;6.05;;;3.22;;
39792;SDS011;26080;42.264;24.536;2023-09-07T05:59:12;7.97;;;3.63;;
39792;SDS011;26080;42.264;24.536;2023-09-07T06:01:38;36.95;;;8.27;;
39792;SDS011;26080;42.264;24.536;2023-09-07T06:04:04;5.68;;;3.42;;
39792;SDS011;26080;42.264;24.536;2023-09-07T06:06:30;10.75;;;4.07;;
39792;SDS011;26080;42.264;24.536;2023-09-07T06:08:56;7.10;;;3.80;;
39792;SDS011;26080;42.264;24.536;2023-09-07T06:11:23;6.43;;;3.83;;
39792;SDS011;26080;42.264;24.536;2023-09-07T06:13:49;6.53;;;3.42;;
39792;SDS011;26080;42.264;24.536;2023-09-07T06:16:14;6.65;;;3.47;;
39792;SDS011;26080;42.264;24.536;2023-09-07T06:18:39;7.80;;;3.80;;
39792;SDS011;26080;42.264;24.536;2023-09-07T06:21:05;7.88;;;4.22;;
39792;SDS011;26080;42.264;24.536;2023-09-07T06:23:31;9.68;;;3.85;;
39792;SDS011;26080;42.264;24.536;2023-09-07T06:25:56;6.07;;;3.85;;
39792;SDS011;26080;42.264;24.536;2023-09-07T06:28:22;5.97;;;3.70;;
39792;SDS011;26080;42.264;24.536;2023-09-07T06:30:47;6.47;;;3.67;;
39792;SDS011;26080;42.264;24.536;2023-09-07T06:33:13;6.50;;;3.45;;
39792;SDS011;26080;42.264;24.536;2023-09-07T06:35:38;6.93;;;2.95;;
39792;SDS011;26080;42.264;24.536;2023-09-07T06:38:04;5.13;;;2.90;;
39792;SDS011;26080;42.264;24.536;2023-09-07T06:40:29;5.05;;;3.55;;
39792;SDS011;26080;42.264;24.536;2023-09-07T06:42:55;5.90;;;3.72;;
39792;SDS011;26080;42.264;24.536;2023-09-07T06:45:22;5.28;;;3.63;;
39792;SDS011;26080;42.264;24.536;2023-09-07T06:47:51;6.43;;;3.03;;
39792;SDS011;26080;42.264;24.536;2023-09-07T06:50:17;4.78;;;2.70;;
39792;SDS011;26080;42.264;24.536;2023-09-07T06:52:42;5.63;;;2.50;;
39792;SDS011;26080;42.264;24.536;2023-09-07T06:55:08;5.93;;;2.97;;
39792;SDS011;26080;42.264;24.536;2023-09-07T06:57:33;5.20;;;3.08;;
39792;SDS011;26080;42.264;24.536;2023-09-07T06:59:59;4.13;;;2.85;;
39792;SDS011;26080;42.264;24.536;2023-09-07T07:02:24;6.53;;;2.65;;
39792;SDS011;26080;42.264;24.536;2023-09-07T07:04:50;6.07;;;2.65;;
39792;SDS011;26080;42.264;24.536;2023-09-07T07:07:16;4.35;;;2.30;;
39792;SDS011;26080;42.264;24.536;2023-09-07T07:09:42;3.85;;;2.13;;
39792;SDS011;26080;42.264;24.536;2023-09-07T07:12:07;4.43;;;2.25;;
39792;SDS011;26080;42.264;24.536;2023-09-07T07:14:33;3.65;;;2.30;;
39792;SDS011;26080;42.264;24.536;2023-09-07T07:16:58;3.10;;;2.00;;
39792;SDS011;26080;42.264;24.536;2023-09-07T07:19:24;6.15;;;2.53;;
39792;SDS011;26080;42.264;24.536;2023-09-07T07:21:49;6.35;;;2.25;;
39792;SDS011;26080;42.264;24.536;2023-09-07T07:24:15;5.53;;;2.78;;
39792;SDS011;26080;42.264;24.536;2023-09-07T07:26:41;3.15;;;1.85;;
39792;SDS011;26080;42.264;24.536;2023-09-07T07:29:06;3.30;;;2.08;;
39792;SDS011;26080;42.264;24.536;2023-09-07T07:31:32;4.22;;;2.20;;
39792;SDS011;26080;42.264;24.536;2023-09-07T07:33:57;7.15;;;2.28;;
39792;SDS011;26080;42.264;24.536;2023-09-07T07:36:23;5.32;;;2.60;;
39792;SDS011;26080;42.264;24.536;2023-09-07T07:38:49;4.95;;;2.47;;
39792;SDS011;26080;42.264;24.536;2023-09-07T07:41:15;3.40;;;1.80;;
39792;SDS011;26080;42.264;24.536;2023-09-07T07:43:40;2.67;;;1.85;;
39792;SDS011;26080;42.264;24.536;2023-09-07T07:46:05;2.22;;;1.40;;
39792;SDS011;26080;42.264;24.536;2023-09-07T07:48:33;4.22;;;2.20;;
39792;SDS011;26080;42.264;24.536;2023-09-07T07:51:02;2.95;;;2.05;;
39792;SDS011;26080;42.264;24.536;2023-09-07T07:53:29;5.50;;;1.95;;
39792;SDS011;26080;42.264;24.536;2023-09-07T07:55:56;6.13;;;2.20;;
39792;SDS011;26080;42.264;24.536;2023-09-07T07:58:22;3.63;;;1.65;;
39792;SDS011;26080;42.264;24.536;2023-09-07T08:00:47;7.63;;;2.20;;
39792;SDS011;26080;42.264;24.536;2023-09-07T08:03:14;3.33;;;1.88;;
39792;SDS011;26080;42.264;24.536;2023-09-07T08:05:42;4.78;;;2.13;;
39792;SDS011;26080;42.264;24.536;2023-09-07T08:08:07;3.40;;;2.28;;
39792;SDS011;26080;42.264;24.536;2023-09-07T08:10:36;4.32;;;2.47;;
39792;SDS011;26080;42.264;24.536;2023-09-07T08:13:02;3.47;;;1.98;;
39792;SDS011;26080;42.264;24.536;2023-09-07T08:15:28;3.05;;;1.90;;
39792;SDS011;26080;42.264;24.536;2023-09-07T08:17:54;4.82;;;2.08;;
39792;SDS011;26080;42.264;24.536;2023-09-07T08:20:20;3.55;;;1.48;;
39792;SDS011;26080;42.264;24.536;2023-09-07T08:22:45;5.57;;;2.33;;
39792;SDS011;26080;42.264;24.536;2023-09-07T08:25:12;1.65;;;1.20;;
39792;SDS011;26080;42.264;24.536;2023-09-07T08:27:42;2.75;;;1.60;;
39792;SDS011;26080;42.264;24.536;2023-09-07T08:30:12;3.72;;;2.17;;
39792;SDS011;26080;42.264;24.536;2023-09-07T08:32:40;4.40;;;2.47;;
39792;SDS011;26080;42.264;24.536;2023-09-07T08:35:08;3.42;;;1.75;;
39792;SDS011;26080;42.264;24.536;2023-09-07T08:37:34;3.53;;;1.67;;
39792;SDS011;26080;42.264;24.536;2023-09-07T08:40:00;2.97;;;1.88;;
39792;SDS011;26080;42.264;24.536;2023-09-07T08:42:25;3.10;;;1.90;;
39792;SDS011;26080;42.264;24.536;2023-09-07T08:44:51;2.72;;;1.70;;
39792;SDS011;26080;42.264;24.536;2023-09-07T08:49:49;3.63;;;2.38;;
39792;SDS011;26080;42.264;24.536;2023-09-07T08:52:15;6.68;;;2.58;;
39792;SDS011;26080;42.264;24.536;2023-09-07T08:54:42;3.92;;;2.35;;
39792;SDS011;26080;42.264;24.536;2023-09-07T08:57:09;2.70;;;1.58;;
39792;SDS011;26080;42.264;24.536;2023-09-07T08:59:36;3.15;;;1.77;;
39792;SDS011;26080;42.264;24.536;2023-09-07T09:02:01;2.83;;;1.67;;
39792;SDS011;26080;42.264;24.536;2023-09-07T09:04:29;5.93;;;1.98;;
39792;SDS011;26080;42.264;24.536;2023-09-07T09:06:55;6.50;;;2.00;;
39792;SDS011;26080;42.264;24.536;2023-09-07T09:09:22;5.03;;;1.85;;
39792;SDS011;26080;42.264;24.536;2023-09-07T09:11:51;3.28;;;2.17;;
39792;SDS011;26080;42.264;24.536;2023-09-07T09:14:17;2.85;;;1.55;;
39792;SDS011;26080;42.264;24.536;2023-09-07T09:16:53;7.10;;;2.25;;
39792;SDS011;26080;42.264;24.536;2023-09-07T09:19:18;3.17;;;1.90;;
39792;SDS011;26080;42.264;24.536;2023-09-07T09:21:44;3.72;;;2.10;;
39792;SDS011;26080;42.264;24.536;2023-09-07T09:24:11;3.97;;;2.17;;
39792;SDS011;26080;42.264;24.536;2023-09-07T09:26:39;3.03;;;1.98;;
39792;SDS011;26080;42.264;24.536;2023-09-07T09:29:05;9.10;;;2.03;;
39792;SDS011;26080;42.264;24.536;2023-09-07T09:31:30;6.65;;;2.17;;
39792;SDS011;26080;42.264;24.536;2023-09-07T09:33:56;5.63;;;2.00;;
39792;SDS011;26080;42.264;24.536;2023-09-07T09:36:23;3.28;;;2.15;;
39792;SDS011;26080;42.264;24.536;2023-09-07T09:38:49;6.10;;;2.40;;
39792;SDS011;26080;42.264;24.536;2023-09-07T09:41:18;3.70;;;2.20;;
39792;SDS011;26080;42.264;24.536;2023-09-07T09:43:44;4.57;;;2.78;;
39792;SDS011;26080;42.264;24.536;2023-09-07T09:46:14;3.20;;;2.20;;
39792;SDS011;26080;42.264;24.536;2023-09-07T09:48:40;2.88;;;1.90;;
39792;SDS011;26080;42.264;24.536;2023-09-07T09:51:07;4.20;;;2.45;;
39792;SDS011;26080;42.264;24.536;2023-09-07T09:53:33;3.55;;;2.17;;
39792;SDS011;26080;42.264;24.536;2023-09-07T09:55:59;3.63;;;2.10;;
39792;SDS011;26080;42.264;24.536;2023-09-07T09:58:25;4.05;;;1.98;;
39792;SDS011;26080;42.264;24.536;2023-09-07T10:00:56;6.30;;;2.70;;
39792;SDS011;26080;42.264;24.536;2023-09-07T10:03:24;5.50;;;2.17;;
39792;SDS011;26080;42.264;24.536;2023-09-07T10:06:06;8.43;;;3.38;;
39792;SDS011;26080;42.264;24.536;2023-09-07T10:08:35;6.03;;;2.33;;
39792;SDS011;26080;42.264;24.536;2023-09-07T10:11:01;3.65;;;2.08;;
39792;SDS011;26080;42.264;24.536;2023-09-07T10:13:34;3.65;;;2.22;;
39792;SDS011;26080;42.264;24.536;2023-09-07T10:16:03;2.28;;;1.40;;
39792;SDS011;26080;42.264;24.536;2023-09-07T10:18:36;3.25;;;2.00;;
39792;SDS011;26080;42.264;24.536;2023-09-07T10:21:03;7.00;;;2.25;;
39792;SDS011;26080;42.264;24.536;2023-09-07T10:26:09;3.88;;;2.42;;
39792;SDS011;26080;42.264;24.536;2023-09-07T10:28:45;2.72;;;1.80;;
39792;SDS011;26080;42.264;24.536;2023-09-07T10:31:17;3.90;;;2.00;;
39792;SDS011;26080;42.264;24.536;2023-09-07T10:33:43;3.45;;;2.35;;
39792;SDS011;26080;42.264;24.536;2023-09-07T10:36:19;5.07;;;2.38;;
39792;SDS011;26080;42.264;24.536;2023-09-07T10:38:52;4.38;;;2.25;;
39792;SDS011;26080;42.264;24.536;2023-09-07T10:41:19;4.05;;;2.10;;
39792;SDS011;26080;42.264;24.536;2023-09-07T10:43:49;5.10;;;2.17;;
39792;SDS011;26080;42.264;24.536;2023-09-07T10:46:18;3.53;;;2.03;;
39792;SDS011;26080;42.264;24.536;2023-09-07T10:48:50;2.10;;;1.63;;
39792;SDS011;26080;42.264;24.536;2023-09-07T10:51:17;4.75;;;2.20;;
39792;SDS011;26080;42.264;24.536;2023-09-07T10:53:43;3.92;;;2.25;;
39792;SDS011;26080;42.264;24.536;2023-09-07T10:56:09;2.65;;;1.75;;
39792;SDS011;26080;42.264;24.536;2023-09-07T10:58:35;3.50;;;2.10;;
39792;SDS011;26080;42.264;24.536;2023-09-07T11:01:04;3.58;;;2.22;;
39792;SDS011;26080;42.264;24.536;2023-09-07T11:03:30;3.08;;;2.03;;
39792;SDS011;26080;42.264;24.536;2023-09-07T11:06:15;4.30;;;2.25;;
39792;SDS011;26080;42.264;24.536;2023-09-07T11:08:46;4.25;;;2.00;;
39792;SDS011;26080;42.264;24.536;2023-09-07T11:11:11;13.35;;;2.30;;
39792;SDS011;26080;42.264;24.536;2023-09-07T11:13:38;4.85;;;2.13;;
39792;SDS011;26080;42.264;24.536;2023-09-07T11:16:06;3.58;;;1.95;;
39792;SDS011;26080;42.264;24.536;2023-09-07T11:18:33;3.88;;;1.63;;
39792;SDS011;26080;42.264;24.536;2023-09-07T11:21:00;2.90;;;1.73;;
39792;SDS011;26080;42.264;24.536;2023-09-07T11:23:29;3.42;;;1.90;;
39792;SDS011;26080;42.264;24.536;2023-09-07T11:25:56;2.70;;;1.48;;
39792;SDS011;26080;42.264;24.536;2023-09-07T11:28:23;3.97;;;1.60;;
39792;SDS011;26080;42.264;24.536;2023-09-07T11:30:53;2.40;;;1.30;;
39792;SDS011;26080;42.264;24.536;2023-09-07T11:33:20;3.88;;;2.78;;
39792;SDS011;26080;42.264;24.536;2023-09-07T11:35:56;5.38;;;2.42;;
39792;SDS011;26080;42.264;24.536;2023-09-07T11:38:22;2.20;;;1.27;;
39792;SDS011;26080;42.264;24.536;2023-09-07T11:40:48;4.65;;;2.05;;
39792;SDS011;26080;42.264;24.536;2023-09-07T11:43:14;5.18;;;2.28;;
39792;SDS011;26080;42.264;24.536;2023-09-07T11:45:41;5.47;;;2.88;;
39792;SDS011;26080;42.264;24.536;2023-09-07T11:48:08;5.80;;;3.17;;
39792;SDS011;26080;42.264;24.536;2023-09-07T11:50:34;3.47;;;1.77;;
39792;SDS011;26080;42.264;24.536;2023-09-07T11:53:00;3.28;;;2.08;;
39792;SDS011;26080;42.264;24.536;2023-09-07T11:55:25;2.40;;;1.50;;
39792;SDS011;26080;42.264;24.536;2023-09-07T11:57:51;4.28;;;2.08;;
39792;SDS011;26080;42.264;24.536;2023-09-07T12:00:17;2.53;;;1.70;;
39792;SDS011;26080;42.264;24.536;2023-09-07T12:02:42;4.07;;;1.67;;
39792;SDS011;26080;42.264;24.536;2023-09-07T12:05:08;6.47;;;2.53;;
39792;SDS011;26080;42.264;24.536;2023-09-07T12:07:34;5.53;;;1.95;;
39792;SDS011;26080;42.264;24.536;2023-09-07T12:10:00;1.90;;;1.52;;
39792;SDS011;26080;42.264;24.536;2023-09-07T12:12:26;2.80;;;1.77;;
39792;SDS011;26080;42.264;24.536;2023-09-07T12:14:51;2.28;;;1.50;;
39792;SDS011;26080;42.264;24.536;2023-09-07T12:17:17;2.97;;;2.00;;
39792;SDS011;26080;42.264;24.536;2023-09-07T12:19:44;2.45;;;1.45;;
39792;SDS011;26080;42.264;24.536;2023-09-07T12:22:11;3.47;;;2.33;;
39792;SDS011;26080;42.264;24.536;2023-09-07T12:24:37;2.92;;;1.90;;
39792;SDS011;26080;42.264;24.536;2023-09-07T12:27:02;2.92;;;1.70;;
39792;SDS011;26080;42.264;24.536;2023-09-07T12:29:28;3.22;;;1.95;;
39792;SDS011;26080;42.264;24.536;2023-09-07T12:31:54;2.92;;;1.77;;
39792;SDS011;26080;42.264;24.536;2023-09-07T12:34:19;7.68;;;1.85;;
39792;SDS011;26080;42.264;24.536;2023-09-07T12:36:45;3.25;;;2.10;;
39792;SDS011;26080;42.264;24.536;2023-09-07T12:39:10;3.83;;;1.90;;
39792;SDS011;26080;42.264;24.536;2023-09-07T12:41:38;2.72;;;1.75;;
39792;SDS011;26080;42.264;24.536;2023-09-07T12:44:03;5.00;;;1.95;;
39792;SDS011;26080;42.264;24.536;2023-09-07T12:46:29;2.58;;;1.70;;
39792;SDS011;26080;42.264;24.536;2023-09-07T12:48:55;3.42;;;1.90;;
39792;SDS011;26080;42.264;24.536;2023-09-07T12:51:20;2.65;;;1.95;;
39792;SDS011;26080;42.264;24.536;2023-09-07T12:53:46;3.22;;;1.80;;
39792;SDS011;26080;42.264;24.536;2023-09-07T12:56:11;3.03;;;1.50;;
39792;SDS011;26080;42.264;24.536;2023-09-07T12:58:37;3.38;;;2.03;;
39792;SDS011;26080;42.264;24.536;2023-09-07T13:01:03;3.45;;;1.70;;
39792;SDS011;26080;42.264;24.536;2023-09-07T13:03:29;2.78;;;1.85;;
39792;SDS011;26080;42.264;24.536;2023-09-07T13:05:54;2.15;;;1.77;;
39792;SDS011;26080;42.264;24.536;2023-09-07T13:08:19;2.63;;;1.60;;
39792;SDS011;26080;42.264;24.536;2023-09-07T13:10:45;3.50;;;1.88;;
39792;SDS011;26080;42.264;24.536;2023-09-07T13:13:10;3.15;;;2.03;;
39792;SDS011;26080;42.264;24.536;2023-09-07T13:15:36;2.83;;;1.65;;
39792;SDS011;26080;42.264;24.536;2023-09-07T13:18:01;5.72;;;2.45;;
39792;SDS011;26080;42.264;24.536;2023-09-07T13:20:27;4.45;;;2.42;;
39792;SDS011;26080;42.264;24.536;2023-09-07T13:22:52;5.47;;;1.77;;
39792;SDS011;26080;42.264;24.536;2023-09-07T13:25:18;3.50;;;1.77;;
39792;SDS011;26080;42.264;24.536;2023-09-07T13:27:43;3.40;;;1.52;;
39792;SDS011;26080;42.264;24.536;2023-09-07T13:30:08;3.05;;;1.67;;
39792;SDS011;26080;42.264;24.536;2023-09-07T13:32:34;5.00;;;2.00;;
39792;SDS011;26080;42.264;24.536;2023-09-07T13:35:00;2.75;;;1.75;;
39792;SDS011;26080;42.264;24.536;2023-09-07T13:37:25;3.90;;;2.10;;
39792;SDS011;26080;42.264;24.536;2023-09-07T13:39:51;2.60;;;1.30;;
39792;SDS011;26080;42.264;24.536;2023-09-07T13:42:16;2.42;;;1.73;;
39792;SDS011;26080;42.264;24.536;2023-09-07T13:44:41;3.78;;;2.03;;
39792;SDS011;26080;42.264;24.536;2023-09-07T13:47:07;2.75;;;1.90;;
39792;SDS011;26080;42.264;24.536;2023-09-07T13:49:35;2.38;;;1.50;;
39792;SDS011;26080;42.264;24.536;2023-09-07T13:52:01;5.57;;;2.05;;
39792;SDS011;26080;42.264;24.536;2023-09-07T13:54:26;2.40;;;1.58;;
39792;SDS011;26080;42.264;24.536;2023-09-07T13:56:51;3.83;;;2.28;;
39792;SDS011;26080;42.264;24.536;2023-09-07T13:59:17;3.22;;;2.05;;
39792;SDS011;26080;42.264;24.536;2023-09-07T14:01:42;3.70;;;2.15;;
39792;SDS011;26080;42.264;24.536;2023-09-07T14:04:07;3.85;;;2.10;;
39792;SDS011;26080;42.264;24.536;2023-09-07T14:06:33;5.43;;;2.88;;
39792;SDS011;26080;42.264;24.536;2023-09-07T14:08:58;2.88;;;1.88;;
39792;SDS011;26080;42.264;24.536;2023-09-07T14:11:24;7.55;;;2.08;;
39792;SDS011;26080;42.264;24.536;2023-09-07T14:13:49;3.67;;;2.22;;
39792;SDS011;26080;42.264;24.536;2023-09-07T14:16:19;3.70;;;1.88;;
39792;SDS011;26080;42.264;24.536;2023-09-07T14:18:45;4.35;;;2.00;;
39792;SDS011;26080;42.264;24.536;2023-09-07T14:21:13;4.65;;;2.15;;
39792;SDS011;26080;42.264;24.536;2023-09-07T14:23:39;3.85;;;2.10;;
39792;SDS011;26080;42.264;24.536;2023-09-07T14:26:05;4.32;;;2.03;;
39792;SDS011;26080;42.264;24.536;2023-09-07T14:28:31;4.53;;;1.88;;
39792;SDS011;26080;42.264;24.536;2023-09-07T14:30:56;4.47;;;2.15;;
39792;SDS011;26080;42.264;24.536;2023-09-07T14:33:23;5.15;;;1.98;;